Time;durP1;ratioP1;P1;durP2;ratioP2;P2;SDS_P1;SDS_P2;PMS_P1;PMS_P2;Temp;Humidity;BMP_temperature;BMP_pressure;BME280_temperature;BME280_humidity;BME280_pressure;Samples;Min_cycle;Max_cycle;Signal;HPM_P1;HPM_P2
2024/03/03 00:01:04;;;;;;;9.07;5.85;;;9.30;99.90;;;;;;5072710;28;20112;-70
2024/03/03 00:03:29;;;;;;;8.30;6.05;;;9.30;99.90;;;;;;5073165;28;20127;-70
2024/03/03 00:05:55;;;;;;;9.40;6.70;;;9.20;99.90;;;;;;5072893;28;20035;-70
2024/03/03 00:08:23;;;;;;;12.50;7.05;;;9.20;99.90;;;;;;5072697;28;20494;-71
2024/03/03 00:10:50;;;;;;;9.48;6.13;;;9.30;99.90;;;;;;5072624;28;20036;-71
2024/03/03 00:13:16;;;;;;;9.75;6.47;;;9.20;99.90;;;;;;5071730;28;20101;-72
2024/03/03 00:15:42;;;;;;;11.27;7.05;;;9.30;99.90;;;;;;5072857;28;20036;-72
2024/03/03 00:18:07;;;;;;;9.70;6.80;;;9.30;99.90;;;;;;5071624;28;20029;-71
2024/03/03 00:20:33;;;;;;;10.18;6.70;;;9.30;99.90;;;;;;5072942;28;20068;-71
2024/03/03 00:22:59;;;;;;;10.43;6.65;;;9.30;99.90;;;;;;5072456;28;20052;-71
2024/03/03 00:25:25;;;;;;;15.45;7.15;;;9.30;99.90;;;;;;5071371;28;20041;-71
2024/03/03 00:27:51;;;;;;;11.18;7.88;;;9.30;99.90;;;;;;5072696;28;20085;-72
2024/03/03 00:30:17;;;;;;;10.70;6.47;;;9.20;99.90;;;;;;5072267;28;20488;-72
2024/03/03 00:32:44;;;;;;;11.30;6.63;;;9.20;99.90;;;;;;5072126;28;20043;-72
2024/03/03 00:35:11;;;;;;;11.48;6.75;;;9.20;99.90;;;;;;5072357;28;20045;-71
2024/03/03 00:37:37;;;;;;;11.00;7.28;;;9.20;99.90;;;;;;5072579;28;20044;-71
2024/03/03 00:40:02;;;;;;;12.52;7.40;;;9.20;99.90;;;;;;5071992;28;20128;-71
2024/03/03 00:42:28;;;;;;;12.35;6.70;;;9.20;99.90;;;;;;5071838;28;20036;-71
2024/03/03 00:44:53;;;;;;;11.60;7.28;;;9.30;99.90;;;;;;5072291;28;20032;-72
2024/03/03 00:47:19;;;;;;;13.55;7.82;;;9.30;99.90;;;;;;5072162;28;20035;-72
2024/03/03 00:49:45;;;;;;;9.32;6.55;;;9.30;99.90;;;;;;5071879;28;20032;-72
2024/03/03 00:52:10;;;;;;;10.80;7.35;;;9.40;99.90;;;;;;5071769;28;20040;-71
2024/03/03 00:54:36;;;;;;;12.90;7.80;;;9.40;99.90;;;;;;5072224;28;20036;-71
2024/03/03 00:57:03;;;;;;;11.45;7.95;;;9.40;99.90;;;;;;5072142;28;20040;-72
2024/03/03 00:59:29;;;;;;;11.60;8.13;;;9.40;99.90;;;;;;5071698;28;20044;-71
2024/03/03 01:01:55;;;;;;;11.80;7.72;;;9.30;99.90;;;;;;5071379;28;20037;-71
2024/03/03 01:04:20;;;;;;;12.95;7.97;;;9.30;99.90;;;;;;5072089;28;20052;-71
2024/03/03 01:06:46;;;;;;;12.60;8.13;;;9.30;99.90;;;;;;5071753;28;20033;-72
2024/03/03 01:09:11;;;;;;;10.85;6.90;;;9.30;99.90;;;;;;5071836;28;20108;-71
2024/03/03 01:11:38;;;;;;;10.55;7.68;;;9.30;99.90;;;;;;5071516;28;20117;-71
2024/03/03 01:14:04;;;;;;;12.00;7.88;;;9.20;99.90;;;;;;5071829;28;20044;-72
2024/03/03 01:16:29;;;;;;;11.80;7.85;;;9.30;99.90;;;;;;5071720;28;20037;-71
2024/03/03 01:18:55;;;;;;;16.30;8.15;;;9.30;99.90;;;;;;5071326;28;20036;-72
2024/03/03 01:21:20;;;;;;;13.07;8.80;;;9.30;99.90;;;;;;5071333;28;20037;-72
2024/03/03 01:23:46;;;;;;;14.30;8.20;;;9.30;99.90;;;;;;5071881;28;20075;-72
2024/03/03 01:26:12;;;;;;;14.45;8.90;;;9.40;99.90;;;;;;5071654;28;20404;-71
2024/03/03 01:28:37;;;;;;;12.13;8.32;;;9.30;99.90;;;;;;5071352;28;20032;-72
2024/03/03 01:31:03;;;;;;;12.30;7.78;;;9.30;99.90;;;;;;5071054;28;20540;-72
2024/03/03 01:33:29;;;;;;;13.40;7.95;;;9.30;99.90;;;;;;5071551;28;20051;-72
2024/03/03 01:35:54;;;;;;;13.00;8.25;;;9.20;99.90;;;;;;5071730;28;20068;-72
2024/03/03 01:38:20;;;;;;;14.93;9.20;;;9.30;99.90;;;;;;5071365;28;20037;-72
2024/03/03 01:40:51;;;;;;;16.98;9.52;;;9.30;99.90;;;;;;5071005;28;20424;-72
2024/03/03 01:43:18;;;;;;;15.30;9.23;;;9.30;99.90;;;;;;5071431;28;20036;-72
2024/03/03 01:45:44;;;;;;;13.85;8.50;;;9.30;99.90;;;;;;5071326;28;20036;-72
2024/03/03 01:48:10;;;;;;;13.80;8.45;;;9.30;99.90;;;;;;5071512;28;20051;-72
2024/03/03 01:50:37;;;;;;;15.20;8.73;;;9.20;99.90;;;;;;5071580;28;20124;-71
2024/03/03 01:53:03;;;;;;;15.55;9.45;;;9.30;99.90;;;;;;5071173;28;20115;-72
2024/03/03 01:55:29;;;;;;;14.80;9.20;;;9.30;99.90;;;;;;5071430;28;20522;-71
2024/03/03 01:58:02;;;;;;;17.85;8.48;;;9.30;99.90;;;;;;5071394;28;20037;-71
2024/03/03 02:00:34;;;;;;;15.93;10.00;;;9.30;99.90;;;;;;5069726;28;20080;-71
2024/03/03 02:03:04;;;;;;;16.58;9.35;;;9.20;99.90;;;;;;5069674;28;20037;-71
2024/03/03 02:05:30;;;;;;;14.38;9.13;;;9.20;99.90;;;;;;5070263;28;20140;-71
2024/03/03 02:07:56;;;;;;;17.02;8.73;;;9.20;99.90;;;;;;5071410;28;20120;-71
2024/03/03 02:10:22;;;;;;;16.58;8.98;;;9.20;99.90;;;;;;5069671;28;20056;-72
2024/03/03 02:12:48;;;;;;;13.15;8.50;;;9.20;99.90;;;;;;5070574;28;20115;-72
2024/03/03 02:15:14;;;;;;;13.65;7.47;;;9.30;99.90;;;;;;5071329;28;20040;-71
2024/03/03 02:17:40;;;;;;;14.38;8.82;;;9.30;99.90;;;;;;5072198;28;20044;-72
2024/03/03 02:20:08;;;;;;;13.55;7.70;;;9.30;99.90;;;;;;5074879;28;20158;-72
2024/03/03 02:22:37;;;;;;;16.00;8.57;;;9.30;99.90;;;;;;5074573;28;20133;-71
2024/03/03 02:25:04;;;;;;;11.38;8.52;;;9.20;99.90;;;;;;5074913;28;20041;-72
2024/03/03 02:27:32;;;;;;;13.40;8.20;;;9.20;99.90;;;;;;5074827;28;20048;-72
2024/03/03 02:29:58;;;;;;;16.25;9.10;;;9.20;99.90;;;;;;5074789;28;20090;-71
2024/03/03 02:32:24;;;;;;;13.93;8.50;;;9.20;99.90;;;;;;5074589;28;20048;-72
2024/03/03 02:34:50;;;;;;;18.23;9.52;;;9.20;99.90;;;;;;5073711;28;20044;-72
2024/03/03 02:37:16;;;;;;;14.02;8.10;;;9.20;99.90;;;;;;5073647;28;20396;-72
2024/03/03 02:39:41;;;;;;;13.80;7.93;;;9.20;99.90;;;;;;5073135;28;20036;-71
2024/03/03 02:42:07;;;;;;;11.63;7.70;;;9.20;99.90;;;;;;5074103;28;20040;-72
2024/03/03 02:44:33;;;;;;;11.75;8.52;;;9.10;99.90;;;;;;5074864;28;20116;-71
2024/03/03 02:46:59;;;;;;;14.15;8.20;;;9.30;99.90;;;;;;5074734;28;20045;-72
2024/03/03 02:49:24;;;;;;;12.38;8.23;;;9.20;99.90;;;;;;5074059;28;20044;-72
2024/03/03 02:51:51;;;;;;;12.52;8.27;;;9.20;99.90;;;;;;5074090;28;20044;-71
2024/03/03 02:54:17;;;;;;;13.82;8.35;;;9.20;99.90;;;;;;5074479;28;20116;-71
2024/03/03 02:56:42;;;;;;;12.88;7.82;;;9.20;99.90;;;;;;5074209;28;20120;-71
2024/03/03 02:59:08;;;;;;;13.68;8.13;;;9.20;99.90;;;;;;5074602;28;20505;-71
2024/03/03 03:01:33;;;;;;;15.38;8.80;;;9.20;99.90;;;;;;5074375;28;20079;-72
2024/03/03 03:03:59;;;;;;;14.25;8.45;;;9.10;99.90;;;;;;5074685;28;20033;-71
2024/03/03 03:06:25;;;;;;;13.95;8.63;;;9.10;99.90;;;;;;5072982;28;20407;-72
2024/03/03 03:08:50;;;;;;;14.98;8.57;;;9.10;99.90;;;;;;5074010;28;20162;-72
2024/03/03 03:11:16;;;;;;;11.95;7.90;;;9.10;99.90;;;;;;5073596;28;20076;-72
2024/03/03 03:13:43;;;;;;;15.85;8.80;;;9.10;99.90;;;;;;5074337;28;20097;-71
2024/03/03 03:16:09;;;;;;;14.18;8.57;;;9.10;99.90;;;;;;5074263;28;20101;-72
2024/03/03 03:18:34;;;;;;;14.57;8.27;;;9.00;99.90;;;;;;5073856;28;20048;-71
2024/03/03 03:21:00;;;;;;;12.68;7.57;;;9.00;99.90;;;;;;5072139;28;20516;-71
2024/03/03 03:23:26;;;;;;;13.30;8.27;;;9.00;99.90;;;;;;5073873;28;20051;-71
2024/03/03 03:25:53;;;;;;;13.77;8.88;;;9.00;99.90;;;;;;5073773;28;20115;-70
2024/03/03 03:28:18;;;;;;;13.90;7.90;;;8.90;99.90;;;;;;5073635;28;20033;-71
2024/03/03 03:30:44;;;;;;;10.88;8.05;;;8.90;99.90;;;;;;5073442;28;20055;-71
2024/03/03 03:33:10;;;;;;;12.18;7.40;;;8.80;99.90;;;;;;5073829;28;20044;-71
2024/03/03 03:35:36;;;;;;;14.60;7.80;;;8.80;99.90;;;;;;5073726;28;20037;-71
2024/03/03 03:38:01;;;;;;;13.00;8.32;;;8.80;99.90;;;;;;5073649;28;20069;-70
2024/03/03 03:40:28;;;;;;;10.80;7.63;;;8.70;99.90;;;;;;5073067;28;20029;-70
2024/03/03 03:42:54;;;;;;;12.30;7.50;;;8.70;99.90;;;;;;5073255;28;20382;-71
2024/03/03 03:45:19;;;;;;;12.25;7.82;;;8.60;99.90;;;;;;5073621;28;20051;-70
2024/03/03 03:47:45;;;;;;;15.90;8.07;;;8.60;99.90;;;;;;5073641;28;20033;-71
2024/03/03 03:50:11;;;;;;;12.40;8.50;;;8.60;99.90;;;;;;5073049;28;20500;-70
2024/03/03 03:52:36;;;;;;;13.30;8.10;;;8.50;99.90;;;;;;5072905;28;20072;-70
2024/03/03 03:55:02;;;;;;;11.50;8.07;;;8.50;99.90;;;;;;5071952;28;20059;-70
2024/03/03 03:57:29;;;;;;;10.43;7.72;;;8.50;99.90;;;;;;5073496;28;20040;-70
2024/03/03 03:59:54;;;;;;;11.32;7.95;;;8.50;99.90;;;;;;5073172;28;20037;-70
2024/03/03 04:02:20;;;;;;;13.38;7.20;;;8.40;99.90;;;;;;5072651;28;20478;-71
2024/03/03 04:04:45;;;;;;;12.27;7.53;;;8.40;99.90;;;;;;5073158;28;20087;-70
2024/03/03 04:07:11;;;;;;;11.52;6.85;;;8.40;99.90;;;;;;5073094;28;20036;-70
2024/03/03 04:09:37;;;;;;;12.32;7.63;;;8.40;99.90;;;;;;5072572;28;20041;-70
2024/03/03 04:12:03;;;;;;;13.13;9.15;;;8.40;99.90;;;;;;5071269;28;20079;-70
2024/03/03 04:14:29;;;;;;;11.77;7.50;;;8.40;99.90;;;;;;5072898;28;20460;-70
2024/03/03 04:16:54;;;;;;;12.77;7.78;;;8.40;99.90;;;;;;5072904;28;20036;-70
2024/03/03 04:19:20;;;;;;;11.30;8.93;;;8.40;99.90;;;;;;5072526;28;20040;-71
2024/03/03 04:21:46;;;;;;;12.73;8.35;;;8.40;99.90;;;;;;5072225;28;20060;-71
2024/03/03 04:24:11;;;;;;;13.90;7.85;;;8.30;99.90;;;;;;5072564;28;20531;-71
2024/03/03 04:26:37;;;;;;;14.25;7.90;;;8.30;99.90;;;;;;5072775;28;20602;-70
2024/03/03 04:29:03;;;;;;;12.60;7.93;;;8.20;99.90;;;;;;5072493;28;20116;-70
2024/03/03 04:31:29;;;;;;;18.08;9.38;;;8.20;99.90;;;;;;5072223;28;20448;-70
2024/03/03 04:33:55;;;;;;;14.65;8.40;;;8.20;99.90;;;;;;5072489;28;20033;-71
2024/03/03 04:36:20;;;;;;;15.15;9.32;;;8.10;99.90;;;;;;5072266;28;20070;-70
2024/03/03 04:38:46;;;;;;;15.45;9.45;;;8.10;99.90;;;;;;5071896;28;20047;-70
2024/03/03 04:41:20;;;;;;;14.80;9.43;;;8.00;99.90;;;;;;5071273;28;20110;-70
2024/03/03 04:43:46;;;;;;;14.55;9.02;;;8.00;99.90;;;;;;5054441;28;20133;-70
2024/03/03 04:46:12;;;;;;;13.27;9.00;;;7.90;99.90;;;;;;5072312;28;20109;-70
2024/03/03 04:48:39;;;;;;;15.32;9.43;;;7.90;99.90;;;;;;5071889;28;20491;-70
2024/03/03 04:51:05;;;;;;;17.00;10.25;;;7.90;99.90;;;;;;5071730;28;20504;-70
2024/03/03 04:53:30;;;;;;;16.35;10.70;;;7.80;99.90;;;;;;5072405;28;20032;-70
2024/03/03 04:55:56;;;;;;;18.38;10.90;;;7.80;99.90;;;;;;5072302;28;20578;-70
2024/03/03 04:58:22;;;;;;;17.88;10.70;;;7.80;99.90;;;;;;5071832;28;20043;-70
2024/03/03 05:00:47;;;;;;;16.98;11.32;;;7.80;99.90;;;;;;5071557;28;20036;-71
2024/03/03 05:03:13;;;;;;;19.92;10.75;;;7.80;99.90;;;;;;5071993;28;20397;-70
2024/03/03 05:05:38;;;;;;;17.35;10.75;;;7.80;99.90;;;;;;5071953;28;20420;-71
2024/03/03 05:08:04;;;;;;;19.60;11.60;;;7.70;99.90;;;;;;5071873;28;20517;-70
2024/03/03 05:10:30;;;;;;;17.38;10.20;;;7.70;99.90;;;;;;5071736;28;20051;-72
2024/03/03 05:12:56;;;;;;;19.45;11.55;;;7.70;99.90;;;;;;5053133;28;20460;-70
2024/03/03 05:15:21;;;;;;;16.70;11.02;;;7.70;99.90;;;;;;5050528;28;20040;-71
2024/03/03 05:17:47;;;;;;;18.88;12.02;;;7.70;99.90;;;;;;5051937;28;20048;-70
2024/03/03 05:20:12;;;;;;;20.45;11.93;;;7.60;99.90;;;;;;5051361;28;20047;-70
2024/03/03 05:22:38;;;;;;;19.75;11.30;;;7.60;99.90;;;;;;5051126;28;20044;-70
2024/03/03 05:25:04;;;;;;;19.88;13.20;;;7.60;99.90;;;;;;5051601;28;20033;-71
2024/03/03 05:27:33;;;;;;;20.42;12.98;;;7.60;99.90;;;;;;5051780;28;20127;-70
2024/03/03 05:30:00;;;;;;;20.05;12.10;;;7.60;99.90;;;;;;5051266;28;20567;-71
2024/03/03 05:32:26;;;;;;;22.13;12.98;;;7.60;99.90;;;;;;5051185;28;20067;-70
2024/03/03 05:34:52;;;;;;;17.05;11.35;;;7.60;99.90;;;;;;5051477;28;20091;-70
2024/03/03 05:37:18;;;;;;;21.73;12.57;;;7.60;99.90;;;;;;5051683;28;20044;-70
2024/03/03 05:39:43;;;;;;;22.23;11.93;;;7.60;99.90;;;;;;5051437;28;20036;-71
2024/03/03 05:42:11;;;;;;;22.35;13.23;;;7.70;99.90;;;;;;5051098;28;20033;-70
2024/03/03 05:44:37;;;;;;;22.70;14.10;;;7.60;99.90;;;;;;5051628;28;20064;-70
2024/03/03 05:47:02;;;;;;;21.00;13.07;;;7.60;99.90;;;;;;5051584;28;20508;-71
2024/03/03 05:49:28;;;;;;;19.77;12.63;;;7.60;99.90;;;;;;5050817;28;20112;-70
2024/03/03 05:51:54;;;;;;;23.65;14.32;;;7.50;99.90;;;;;;5051050;28;20040;-70
2024/03/03 05:54:19;;;;;;;23.10;13.38;;;7.60;99.90;;;;;;5055076;28;20124;-70
2024/03/03 05:56:46;;;;;;;23.20;13.57;;;7.60;99.90;;;;;;5055540;28;20033;-70
2024/03/03 05:59:14;;;;;;;22.20;14.75;;;7.60;99.90;;;;;;5055298;28;20075;-71
2024/03/03 06:01:41;;;;;;;24.63;14.60;;;7.50;99.90;;;;;;5054859;28;20440;-71
2024/03/03 06:04:08;;;;;;;24.17;13.98;;;7.50;99.90;;;;;;5055328;28;20044;-71
2024/03/03 06:06:33;;;;;;;23.63;14.50;;;7.50;99.90;;;;;;5055409;28;20120;-71
2024/03/03 06:08:59;;;;;;;27.25;15.15;;;7.50;99.90;;;;;;5054894;28;20112;-70
2024/03/03 06:11:24;;;;;;;23.30;13.68;;;7.50;99.90;;;;;;5053411;28;20048;-70
2024/03/03 06:13:51;;;;;;;27.90;14.07;;;7.50;99.90;;;;;;5053665;28;20044;-70
2024/03/03 06:16:16;;;;;;;25.75;14.68;;;7.50;99.90;;;;;;5053609;28;20077;-70
2024/03/03 06:18:42;;;;;;;24.15;14.65;;;7.50;99.90;;;;;;5053499;28;20134;-70
2024/03/03 06:21:08;;;;;;;25.23;15.40;;;7.40;99.90;;;;;;5054660;28;20501;-70
2024/03/03 06:23:36;;;;;;;24.55;14.68;;;7.40;99.90;;;;;;5055045;28;20044;-70
2024/03/03 06:26:01;;;;;;;23.30;14.30;;;7.50;99.90;;;;;;5053723;28;20485;-70
2024/03/03 06:28:27;;;;;;;24.08;14.48;;;7.40;99.90;;;;;;5054659;28;20041;-70
2024/03/03 06:30:53;;;;;;;26.23;14.95;;;7.40;99.90;;;;;;5054526;28;20037;-71
2024/03/03 06:33:18;;;;;;;21.73;14.80;;;7.40;99.90;;;;;;5054797;28;20095;-70
2024/03/03 06:35:46;;;;;;;21.85;14.38;;;7.40;99.90;;;;;;5054979;28;20037;-71
2024/03/03 06:38:12;;;;;;;21.73;14.50;;;7.40;99.90;;;;;;5054617;28;20033;-70
2024/03/03 06:40:37;;;;;;;26.67;15.05;;;7.40;99.90;;;;;;5054669;28;20120;-70
2024/03/03 06:43:03;;;;;;;24.02;14.98;;;7.40;99.90;;;;;;5054112;28;20037;-70
2024/03/03 06:45:29;;;;;;;26.20;15.07;;;7.50;99.90;;;;;;5054660;28;20037;-70
2024/03/03 06:47:54;;;;;;;27.35;15.23;;;7.50;99.90;;;;;;5054811;28;20037;-70
2024/03/03 06:50:20;;;;;;;25.02;13.75;;;7.50;99.90;;;;;;5054318;28;20496;-70
2024/03/03 06:52:46;;;;;;;27.48;15.00;;;7.50;99.90;;;;;;5054221;28;20045;-70
2024/03/03 06:55:12;;;;;;;24.23;16.35;;;7.50;99.90;;;;;;5054549;28;20045;-70
2024/03/03 06:57:37;;;;;;;28.25;15.98;;;7.50;99.90;;;;;;5054617;28;20075;-70
2024/03/03 07:00:03;;;;;;;24.63;15.43;;;7.60;99.90;;;;;;5054069;28;20437;-70
2024/03/03 07:02:57;;;;;;;24.17;15.15;;;7.60;99.90;;;;;;5053667;28;20052;-70
2024/03/03 07:05:14;;;;;;;25.00;14.57;;;7.70;99.90;;;;;;5053664;28;20581;-71
2024/03/03 07:07:40;;;;;;;29.58;16.58;;;7.70;99.90;;;;;;5054380;28;20041;-71
2024/03/03 07:10:06;;;;;;;28.23;16.17;;;7.70;99.90;;;;;;5052840;28;20047;-70
2024/03/03 07:12:32;;;;;;;28.50;16.77;;;7.60;99.90;;;;;;5053828;28;20045;-70
2024/03/03 07:14:57;;;;;;;26.85;16.02;;;7.60;99.90;;;;;;5053995;28;20059;-70
2024/03/03 07:17:23;;;;;;;25.92;15.52;;;7.70;99.90;;;;;;5054355;28;20033;-70
2024/03/03 07:19:48;;;;;;;25.30;15.52;;;7.80;99.90;;;;;;5053901;28;20492;-70
2024/03/03 07:22:14;;;;;;;26.67;15.57;;;8.00;99.90;;;;;;5053588;28;20041;-70
2024/03/03 07:24:39;;;;;;;27.08;16.42;;;8.10;99.90;;;;;;5054030;28;20037;-70
2024/03/03 07:27:05;;;;;;;27.30;16.38;;;8.20;99.90;;;;;;5052690;28;20048;-71
2024/03/03 07:29:31;;;;;;;26.20;15.77;;;8.30;99.90;;;;;;5053436;28;20453;-71
2024/03/03 07:31:56;;;;;;;24.77;14.77;;;8.30;99.90;;;;;;5053520;28;20037;-71
2024/03/03 07:34:22;;;;;;;25.60;15.68;;;8.40;99.90;;;;;;5053855;28;20040;-71
2024/03/03 07:36:47;;;;;;;24.73;15.85;;;8.60;99.90;;;;;;5053710;28;20036;-71
2024/03/03 07:39:14;;;;;;;28.13;15.73;;;8.80;99.90;;;;;;5035392;28;20076;-71
2024/03/03 07:41:39;;;;;;;27.80;15.57;;;8.90;99.90;;;;;;5053110;28;20052;-71
2024/03/03 07:44:06;;;;;;;28.20;15.57;;;9.10;99.90;;;;;;5052407;28;20057;-71
2024/03/03 07:46:34;;;;;;;25.88;15.32;;;9.20;99.90;;;;;;5054319;28;20116;-71
2024/03/03 07:49:00;;;;;;;21.65;13.48;;;9.30;99.90;;;;;;5053673;28;20037;-71
2024/03/03 07:51:25;;;;;;;24.98;15.93;;;9.40;99.90;;;;;;5053191;28;20044;-71
2024/03/03 07:53:51;;;;;;;22.58;14.07;;;9.50;99.90;;;;;;5053377;28;20045;-71
2024/03/03 07:56:16;;;;;;;24.20;14.50;;;9.60;99.90;;;;;;5053410;28;20049;-71
2024/03/03 07:58:42;;;;;;;23.73;14.98;;;9.70;99.90;;;;;;5052909;28;20044;-71
2024/03/03 08:01:08;;;;;;;23.95;15.07;;;9.80;99.90;;;;;;5052863;28;20130;-71
2024/03/03 08:03:34;;;;;;;24.88;15.20;;;9.80;99.90;;;;;;5053306;28;20051;-71
2024/03/03 08:06:00;;;;;;;25.05;15.30;;;9.90;99.90;;;;;;5053170;28;20473;-71
2024/03/03 08:08:26;;;;;;;22.55;14.95;;;9.90;99.90;;;;;;5052819;28;20033;-71
2024/03/03 08:10:51;;;;;;;24.35;15.00;;;10.20;99.90;;;;;;5052785;28;20044;-71
2024/03/03 08:13:17;;;;;;;26.38;15.40;;;10.20;99.90;;;;;;5053293;28;20037;-71
2024/03/03 08:15:43;;;;;;;22.05;14.50;;;10.40;99.90;;;;;;5052970;28;20041;-71
2024/03/03 08:18:08;;;;;;;24.95;15.45;;;10.50;99.90;;;;;;5053072;28;20552;-71
2024/03/03 08:20:34;;;;;;;22.13;15.32;;;10.50;99.90;;;;;;5052798;28;20127;-71
2024/03/03 08:22:59;;;;;;;27.85;15.73;;;10.50;99.90;;;;;;5051198;28;20047;-71
2024/03/03 08:25:25;;;;;;;22.73;15.35;;;10.60;99.90;;;;;;5052722;28;20072;-71
2024/03/03 08:27:51;;;;;;;24.05;15.10;;;10.70;99.90;;;;;;5052587;28;20033;-71
2024/03/03 08:30:17;;;;;;;27.17;15.07;;;10.70;99.90;;;;;;5052572;28;20112;-71
2024/03/03 08:32:42;;;;;;;24.30;14.38;;;10.80;99.90;;;;;;5052115;28;20037;-71
2024/03/03 08:35:08;;;;;;;23.40;14.55;;;11.00;99.90;;;;;;5051440;28;20044;-71
2024/03/03 08:37:34;;;;;;;21.77;14.48;;;11.10;99.90;;;;;;5052630;28;20048;-71
2024/03/03 08:40:01;;;;;;;23.35;14.60;;;11.10;99.90;;;;;;5052046;28;20125;-71
2024/03/03 08:42:26;;;;;;;24.40;15.05;;;11.10;99.90;;;;;;5050405;28;20404;-70
2024/03/03 08:44:52;;;;;;;19.13;12.73;;;11.00;99.90;;;;;;5052546;28;20041;-71
2024/03/03 08:47:18;;;;;;;20.23;13.82;;;10.80;99.90;;;;;;5062134;28;20032;-70
2024/03/03 08:49:44;;;;;;;23.52;14.02;;;10.60;99.90;;;;;;5069108;28;20032;-70
2024/03/03 08:52:10;;;;;;;23.00;14.43;;;10.50;99.90;;;;;;5069938;28;20052;-70
2024/03/03 08:54:36;;;;;;;22.88;14.82;;;10.50;99.90;;;;;;5071789;28;20078;-71
2024/03/03 08:57:03;;;;;;;26.27;14.15;;;10.40;99.90;;;;;;5071830;28;20499;-70
2024/03/03 08:59:29;;;;;;;24.10;14.73;;;10.40;99.90;;;;;;5057776;28;20037;-69
2024/03/03 09:01:54;;;;;;;23.92;14.00;;;10.20;99.90;;;;;;5067995;28;20040;-70
2024/03/03 09:04:22;;;;;;;24.55;13.77;;;10.30;99.90;;;;;;5069404;28;20557;-70
2024/03/03 09:06:48;;;;;;;21.85;14.98;;;10.40;99.90;;;;;;5069719;28;20044;-71
2024/03/03 09:09:16;;;;;;;27.90;14.65;;;10.40;99.90;;;;;;5071436;28;20040;-70
2024/03/03 09:11:44;;;;;;;21.85;15.02;;;10.50;99.90;;;;;;5071182;28;20119;-70
2024/03/03 09:14:11;;;;;;;25.33;15.63;;;10.70;99.90;;;;;;5070391;28;20490;-70
2024/03/03 09:16:37;;;;;;;24.27;15.45;;;10.90;99.90;;;;;;5066257;28;20128;-71
2024/03/03 09:19:03;;;;;;;26.02;15.23;;;11.00;99.90;;;;;;5061329;28;20123;-71
2024/03/03 09:21:28;;;;;;;22.90;15.35;;;11.30;99.90;;;;;;5071164;28;20090;-71
2024/03/03 09:23:54;;;;;;;24.23;14.75;;;11.20;99.90;;;;;;5071674;28;20068;-71
2024/03/03 09:26:20;;;;;;;22.83;14.82;;;11.30;99.90;;;;;;5071039;28;20038;-71
2024/03/03 09:28:45;;;;;;;25.65;15.15;;;11.30;99.90;;;;;;5070105;28;20071;-71
2024/03/03 09:31:11;;;;;;;22.23;14.88;;;11.20;99.90;;;;;;5069180;28;20036;-71
2024/03/03 09:33:38;;;;;;;27.48;14.65;;;11.20;99.90;;;;;;5066565;28;20033;-71
2024/03/03 09:36:05;;;;;;;21.65;14.13;;;11.10;99.90;;;;;;5062527;28;20527;-71
2024/03/03 09:38:31;;;;;;;22.77;13.95;;;11.10;99.90;;;;;;5071106;28;20032;-71
2024/03/03 09:40:57;;;;;;;21.77;13.48;;;11.10;99.90;;;;;;5069438;28;20093;-71
2024/03/03 09:43:27;;;;;;;20.63;13.32;;;11.00;99.90;;;;;;5071363;28;20078;-70
2024/03/03 09:45:53;;;;;;;24.90;14.13;;;10.90;99.90;;;;;;5070157;28;20107;-71
2024/03/03 09:48:21;;;;;;;22.25;14.55;;;10.90;99.90;;;;;;5071118;28;20528;-71
2024/03/03 09:50:50;;;;;;;21.65;13.68;;;10.90;99.90;;;;;;5071022;28;20405;-72
2024/03/03 09:53:16;;;;;;;24.95;15.98;;;10.80;99.90;;;;;;5071375;28;20033;-71
2024/03/03 09:55:44;;;;;;;22.40;13.98;;;10.80;99.90;;;;;;5071227;28;20040;-70
2024/03/03 09:58:11;;;;;;;24.25;14.18;;;10.70;99.90;;;;;;5071038;28;20041;-70
2024/03/03 10:00:37;;;;;;;24.15;14.13;;;10.70;99.90;;;;;;5071108;28;20040;-71
2024/03/03 10:03:03;;;;;;;27.20;15.98;;;10.70;99.90;;;;;;5070697;28;20570;-72
2024/03/03 10:05:31;;;;;;;26.20;14.70;;;10.70;99.90;;;;;;5071098;28;20137;-72
2024/03/03 10:08:01;;;;;;;25.02;14.52;;;10.80;99.90;;;;;;5071078;28;20079;-71
2024/03/03 10:10:30;;;;;;;22.83;14.95;;;10.80;99.90;;;;;;5070681;28;20492;-71
2024/03/03 10:12:58;;;;;;;21.88;14.68;;;10.90;99.90;;;;;;5069279;28;20041;-70
2024/03/03 10:15:24;;;;;;;24.27;14.55;;;11.00;99.90;;;;;;5070993;28;20041;-72
2024/03/03 10:17:53;;;;;;;24.80;15.80;;;11.10;99.90;;;;;;5069609;28;20036;-70
2024/03/03 10:20:19;;;;;;;25.73;15.25;;;11.10;99.90;;;;;;5070596;28;20460;-71
2024/03/03 10:22:45;;;;;;;27.75;15.77;;;11.00;99.90;;;;;;5066907;28;20115;-69
2024/03/03 10:25:15;;;;;;;28.48;16.42;;;11.10;99.90;;;;;;5070187;28;20041;-69
2024/03/03 10:27:48;;;;;;;25.13;15.93;;;11.20;99.90;;;;;;5070956;28;20051;-70
2024/03/03 10:30:17;;;;;;;23.33;15.18;;;11.20;99.90;;;;;;5070843;28;20079;-70
2024/03/03 10:32:44;;;;;;;26.27;14.90;;;11.30;99.90;;;;;;5070502;28;20491;-71
2024/03/03 10:35:12;;;;;;;25.27;14.30;;;11.30;99.90;;;;;;5071112;28;20040;-70
2024/03/03 10:38:01;;;;;;;23.20;15.10;;;11.30;99.90;;;;;;5071234;28;20051;-70
2024/03/03 10:40:27;;;;;;;26.95;15.98;;;11.40;99.90;;;;;;5074469;28;20141;-70
2024/03/03 10:42:54;;;;;;;25.20;16.23;;;11.40;99.90;;;;;;5074245;28;20120;-70
2024/03/03 10:45:20;;;;;;;23.80;13.93;;;11.40;99.90;;;;;;5074432;28;20036;-70
2024/03/03 10:47:47;;;;;;;27.13;15.70;;;11.40;99.90;;;;;;5074871;28;20025;-71
2024/03/03 10:50:21;;;;;;;24.38;15.00;;;11.40;99.90;;;;;;5074209;28;20060;-70
2024/03/03 10:52:49;;;;;;;25.05;16.08;;;11.50;99.90;;;;;;5074191;28;20032;-70
2024/03/03 10:55:16;;;;;;;24.38;15.20;;;11.50;99.90;;;;;;5074593;28;20120;-70
2024/03/03 10:57:45;;;;;;;25.58;15.27;;;11.50;99.90;;;;;;5037222;28;20084;-73
2024/03/03 11:00:22;;;;;;;24.10;15.02;;;11.60;99.90;;;;;;5033274;28;20506;-71
2024/03/03 11:02:51;;;;;;;24.90;14.57;;;11.60;99.90;;;;;;5032375;28;20037;-72
2024/03/03 11:05:17;;;;;;;24.00;14.85;;;11.70;99.90;;;;;;5021377;28;20139;-72
2024/03/03 11:07:44;;;;;;;24.00;15.18;;;11.80;99.90;;;;;;5014152;28;20041;-71
2024/03/03 11:10:10;;;;;;;30.63;14.85;;;11.80;99.90;;;;;;5012636;28;20207;-71
2024/03/03 11:12:36;;;;;;;30.23;16.25;;;11.80;99.90;;;;;;5012504;28;20251;-71
2024/03/03 11:15:07;;;;;;;25.15;15.35;;;12.00;99.90;;;;;;5014062;28;20063;-71
2024/03/03 11:17:40;;;;;;;27.20;15.85;;;12.00;99.90;;;;;;5013455;28;20217;-70
2024/03/03 11:20:17;;;;;;;24.75;15.63;;;12.00;99.90;;;;;;5013127;28;20103;-71
2024/03/03 11:22:58;;;;;;;24.92;15.00;;;12.00;99.90;;;;;;5012781;28;20277;-71
2024/03/03 11:25:27;;;;;;;23.13;13.98;;;12.00;99.90;;;;;;5027691;28;20045;-71
2024/03/03 11:27:58;;;;;;;21.75;14.68;;;12.00;99.90;;;;;;5013932;28;20567;-71
2024/03/03 11:30:24;;;;;;;25.38;15.13;;;11.90;99.90;;;;;;5013080;28;20037;-73
2024/03/03 11:32:50;;;;;;;25.40;15.68;;;12.00;99.90;;;;;;5012473;28;20047;-72
2024/03/03 11:35:17;;;;;;;25.38;15.82;;;12.00;99.90;;;;;;5012618;28;20045;-72
2024/03/03 11:37:43;;;;;;;25.77;15.65;;;12.10;99.90;;;;;;5013225;28;20982;-71
2024/03/03 11:40:16;;;;;;;23.80;14.70;;;12.20;99.90;;;;;;5027097;28;20107;-71
2024/03/03 11:42:42;;;;;;;22.95;15.38;;;12.30;99.90;;;;;;5012566;28;20143;-70
2024/03/03 11:45:09;;;;;;;25.08;14.43;;;12.40;99.90;;;;;;5013518;28;20198;-72
2024/03/03 11:47:45;;;;;;;22.85;14.32;;;12.50;99.90;;;;;;5012049;28;20136;-72
2024/03/03 11:50:19;;;;;;;25.73;14.95;;;12.60;99.90;;;;;;5010255;28;20045;-71
2024/03/03 11:52:45;;;;;;;;;;;12.70;99.90;;;;;;5012419;28;20139;-71
2024/03/03 11:55:22;;;;;;;24.40;14.10;;;12.60;99.90;;;;;;5012203;28;20067;-71
2024/03/03 11:57:50;;;;;;;24.40;13.77;;;12.70;99.90;;;;;;5011164;28;20053;-71
2024/03/03 12:00:18;;;;;;;23.17;15.00;;;12.70;99.90;;;;;;5044518;28;20166;-70
2024/03/03 12:02:45;;;;;;;25.48;15.27;;;12.70;99.90;;;;;;5071962;28;20036;-71
2024/03/03 12:05:14;;;;;;;23.48;14.63;;;12.80;99.90;;;;;;5073115;28;20053;-70
2024/03/03 12:07:47;;;;;;;24.67;16.52;;;12.70;99.90;;;;;;5073107;28;20427;-70
2024/03/03 12:10:24;;;;;;;26.15;13.88;;;12.80;99.90;;;;;;5072767;28;20125;-70
2024/03/03 12:12:55;;;;;;;23.30;14.98;;;12.70;99.90;;;;;;5072430;28;20101;-71
2024/03/03 12:15:26;;;;;;;24.20;13.77;;;12.70;99.90;;;;;;5073070;28;20072;-70
2024/03/03 12:17:54;;;;;;;25.63;14.48;;;12.70;99.90;;;;;;5073067;28;20456;-70
2024/03/03 12:20:23;;;;;;;26.05;14.20;;;12.70;99.90;;;;;;5072592;28;20036;-70
2024/03/03 12:22:49;;;;;;;21.90;14.90;;;12.70;99.90;;;;;;5072385;28;20041;-70
2024/03/03 12:25:19;;;;;;;22.25;15.07;;;12.70;99.90;;;;;;5072720;28;20040;-71
2024/03/03 12:27:51;;;;;;;29.23;15.48;;;12.80;99.90;;;;;;5072626;28;20044;-70
2024/03/03 12:30:20;;;;;;;25.27;15.45;;;12.90;99.90;;;;;;5071986;28;20064;-70
2024/03/03 12:32:46;;;;;;;26.95;15.32;;;13.00;99.90;;;;;;5071644;28;20032;-70
2024/03/03 12:35:12;;;;;;;24.50;14.00;;;13.00;99.90;;;;;;5072173;28;20509;-71